< < Back
Terminal Aerodrome Forecast


Current Version              Previous Versions:   1  2  3  4  5  6  7  8  9  

Terminal Aerodrome Forecast

519
FTUS42 KTAE 231121
TAFVLD
TAF
KVLD 231121Z 2312/2412 VRB03KT P6SM FEW250
     FM231800 18006KT P6SM FEW040 SCT250
     FM240000 17003KT P6SM SCT250=

Latest METAR

189
SAUS70 KWBC 240556
MTRVLD
METAR KVLD 240553Z AUTO 20003KT 10SM CLR 25/23 A3003 RMK AO2 SLP175
T02500228 10300 20250 50006


USA.gov is the U.S. government's official web portal to all federal, state and local government web resources and services.